Time;durP1;ratioP1;P1;durP2;ratioP2;P2;SDS_P1;SDS_P2;PMS_P1;PMS_P2;Temp;Humidity;BMP_temperature;BMP_pressure;BME280_temperature;BME280_humidity;BME280_pressure;Samples;Min_cycle;Max_cycle;Signal;HPM_P1;HPM_P2
2021/10/31 00:02:04;;;;;;;;;17.75;17.25;;;;;-147.17;100.00;49168.97;5054462;28;51430;-57
2021/10/31 00:04:30;;;;;;;;;17.00;17.00;;;;;-147.17;100.00;49143.38;5054965;28;52681;-59
2021/10/31 00:06:55;;;;;;;;;24.75;22.50;;;;;-147.17;100.00;49180.78;5056217;28;53342;-58
2021/10/31 00:09:21;;;;;;;;;20.75;20.00;;;;;-147.17;100.00;49188.66;5052740;28;51464;-58
2021/10/31 00:11:46;;;;;;;;;21.50;20.75;;;;;-147.17;100.00;49174.88;5053755;28;51368;-58
2021/10/31 00:14:12;;;;;;;;;54.75;45.00;;;;;-147.17;100.00;49178.81;5052048;28;51117;-58
2021/10/31 00:16:37;;;;;;;;;19.50;19.25;;;;;-147.17;100.00;49206.34;5052822;28;51268;-59
2021/10/31 00:19:03;;;;;;;;;19.75;17.00;;;;;-147.17;100.00;49198.47;5050670;28;51593;-59
2021/10/31 00:21:29;;;;;;;;;26.25;23.75;;;;;-147.17;100.00;49159.13;5054413;28;51450;-58
2021/10/31 00:23:55;;;;;;;;;12.00;12.00;;;;;-147.17;100.00;49202.41;5052706;28;52968;-58
2021/10/31 00:26:21;;;;;;;;;14.00;14.00;;;;;-147.17;100.00;49170.94;5053247;28;51232;-59
2021/10/31 00:28:46;;;;;;;;;10.33;10.33;;;;;-147.17;100.00;49210.28;5048838;28;51344;-59
2021/10/31 00:31:12;;;;;;;;;9.33;9.33;;;;;-147.17;100.00;49188.66;5054262;28;51514;-59
2021/10/31 00:33:38;;;;;;;;;11.00;11.00;;;;;-147.17;100.00;49200.44;5053754;28;51146;-59
2021/10/31 00:36:04;;;;;;;;;12.00;10.67;;;;;-147.17;100.00;49206.34;5054259;28;53163;-59
2021/10/31 00:38:30;;;;;;;;;12.00;12.00;;;;;-147.17;100.00;49186.69;5054235;28;51323;-58
2021/10/31 00:40:55;;;;;;;;;14.00;13.00;;;;;-147.17;100.00;49228.00;5055672;28;52641;-59
2021/10/31 00:43:21;;;;;;;;;9.67;9.33;;;;;-147.17;100.00;49241.78;5035924;28;51716;-59
2021/10/31 00:45:46;;;;;;;;;10.67;9.33;;;;;-147.17;100.00;49200.44;5054663;28;51367;-58
2021/10/31 00:48:12;;;;;;;;;13.67;13.67;;;;;-147.17;100.00;49229.97;5052670;28;51489;-57
2021/10/31 00:50:37;;;;;;;;;9.33;9.33;;;;;-147.17;100.00;49218.16;5054593;28;53335;-57
2021/10/31 00:53:03;;;;;;;;;11.33;11.33;;;;;-147.17;100.00;49204.38;5054131;28;51236;-59
2021/10/31 00:55:29;;;;;;;;;12.00;11.75;;;;;-147.17;100.00;49229.97;5055036;28;51293;-57
2021/10/31 00:57:55;;;;;;;;;9.67;9.67;;;;;-147.17;100.00;49222.09;5055060;28;51334;-57
2021/10/31 01:00:21;;;;;;;;;10.33;9.00;;;;;-147.17;100.00;49190.63;5053408;28;52015;-56
2021/10/31 01:02:46;;;;;;;;;13.00;11.67;;;;;-147.17;100.00;49233.91;5048656;28;51489;-59
2021/10/31 01:05:17;;;;;;;;;10.67;10.33;;;;;-147.17;100.00;49224.06;5052907;28;51153;-58
2021/10/31 01:08:13;;;;;;;;;10.67;10.33;;;;;-147.17;100.00;49218.16;5054772;28;53572;-56
2021/10/31 01:11:00;;;;;;;;;8.33;8.33;;;;;-147.17;100.00;49192.56;5055319;28;53312;-58
2021/10/31 01:13:50;;;;;;;;;10.00;9.33;;;;;-147.17;100.00;49241.78;5058314;28;51979;-58
2021/10/31 01:16:34;;;;;;;;;13.00;12.00;;;;;-147.17;100.00;49273.25;5056481;28;51369;-57
2021/10/31 01:19:14;;;;;;;;;13.00;10.33;;;;;-147.17;100.00;49237.84;5057463;28;51379;-58
2021/10/31 01:22:02;;;;;;;;;9.00;8.33;;;;;-147.17;100.00;49241.78;5056966;28;51153;-58
2021/10/31 01:24:49;;;;;;;;;10.33;9.00;;;;;-147.17;100.00;49269.34;5028132;28;53186;-58
2021/10/31 01:27:25;;;;;;;;;9.00;9.00;;;;;-147.17;100.00;49239.81;5056622;28;51514;-57
2021/10/31 01:30:32;;;;;;;;;14.00;12.33;;;;;-147.17;100.00;49267.38;5043853;28;53522;-55
2021/10/31 01:33:25;;;;;;;;;11.33;11.00;;;;;-147.17;100.00;49257.53;5057665;28;51286;-58
2021/10/31 01:36:04;;;;;;;;;11.00;9.67;;;;;-147.17;100.00;49269.34;5056151;28;53424;-59
2021/10/31 01:38:49;;;;;;;;;10.67;10.00;;;;;-147.17;100.00;49304.75;5057280;28;53325;-58
2021/10/31 01:41:33;;;;;;;;;9.67;9.00;;;;;-147.17;100.00;49257.53;5056605;28;51281;-58
2021/10/31 01:44:07;;;;;;;;;8.00;8.00;;;;;-147.17;100.00;49263.44;5036961;28;51930;-58
2021/10/31 01:46:50;;;;;;;;;10.33;9.67;;;;;-147.17;100.00;49247.69;5055393;28;51895;-58
2021/10/31 01:49:34;;;;;;;;;10.67;10.67;;;;;-147.17;100.00;49247.69;5039354;28;52890;-58
2021/10/31 01:52:03;;;;;;;;;11.33;9.33;;;;;-147.17;100.00;49237.84;5056125;28;51264;-57
2021/10/31 01:54:59;;;;;;;;;12.00;12.00;;;;;-147.17;100.00;49257.53;5057137;28;53580;-56
2021/10/31 01:57:27;;;;;;;;;9.33;9.33;;;;;-147.17;100.00;49261.47;5055565;28;51691;-57
2021/10/31 02:00:05;;;;;;;;;8.67;7.33;;;;;-147.17;100.00;49261.47;5055889;28;51176;-58
2021/10/31 02:02:35;;;;;;;;;9.33;9.33;;;;;-147.17;100.00;49271.31;5038864;28;54028;-57
2021/10/31 02:05:01;;;;;;;;;11.00;9.67;;;;;-147.17;100.00;49239.81;5056959;28;51211;-56
2021/10/31 02:07:29;;;;;;;;;8.67;8.67;;;;;-147.17;100.00;49261.47;5039539;28;52679;-58
2021/10/31 02:09:56;;;;;;;;;9.67;9.00;;;;;-147.17;100.00;49267.38;5054032;28;53477;-59
2021/10/31 02:12:22;;;;;;;;;12.67;10.00;;;;;-147.17;100.00;49269.34;5055875;28;51344;-59
2021/10/31 02:14:49;;;;;;;;;9.00;9.00;;;;;-147.17;100.00;49269.34;5055321;28;51549;-57
2021/10/31 02:17:16;;;;;;;;;8.00;7.33;;;;;-147.17;100.00;49285.06;5055758;28;52321;-57
2021/10/31 02:19:44;;;;;;;;;8.00;8.00;;;;;-147.17;100.00;49281.13;5055617;28;53022;-57
2021/10/31 02:22:15;;;;;;;;;10.33;9.00;;;;;-147.17;100.00;49255.56;5054622;28;53577;-59
2021/10/31 02:24:41;;;;;;;;;12.00;11.67;;;;;-147.17;100.00;49273.25;5055033;28;51176;-58
2021/10/31 02:27:13;;;;;;;;;10.33;10.33;;;;;-147.17;100.00;49265.41;5056227;28;52349;-58
2021/10/31 02:29:52;;;;;;;;;12.00;9.67;;;;;-147.17;100.00;49312.63;5055741;28;51168;-58
2021/10/31 02:32:19;;;;;;;;;11.00;11.00;;;;;-147.17;100.00;49261.47;5037774;28;53402;-57
2021/10/31 02:34:44;;;;;;;;;12.67;11.00;;;;;-147.17;100.00;49259.50;5036679;28;51344;-59
2021/10/31 02:37:10;;;;;;;;;13.00;12.00;;;;;-147.17;100.00;49249.66;5056721;28;52783;-58
2021/10/31 02:39:36;;;;;;;;;13.00;12.33;;;;;-147.17;100.00;49320.50;5055380;28;51327;-58
2021/10/31 02:42:03;;;;;;;;;13.00;12.33;;;;;-147.17;100.00;49312.63;5055365;28;51236;-58
2021/10/31 02:44:28;;;;;;;;;11.00;11.00;;;;;-147.17;100.00;49326.41;5056927;28;51186;-58
2021/10/31 02:46:54;;;;;;;;;11.33;10.33;;;;;-147.17;100.00;49279.16;5056010;28;51505;-58
2021/10/31 02:49:20;;;;;;;;;14.67;12.67;;;;;-147.17;100.00;49289.00;5055766;28;51568;-58
2021/10/31 02:51:55;;;;;;;;;12.33;12.33;;;;;-147.17;100.00;49320.50;5055803;28;51243;-57
2021/10/31 02:54:45;;;;;;;;;14.67;14.00;;;;;-147.17;100.00;49306.72;5056851;28;51155;-58
2021/10/31 02:57:18;;;;;;;;;10.67;8.33;;;;;-147.17;100.00;49298.84;5054669;28;52341;-58
2021/10/31 02:59:49;;;;;;;;;10.33;10.33;;;;;-147.17;100.00;49296.88;5055798;28;51197;-58
2021/10/31 03:02:15;;;;;;;;;12.00;12.00;;;;;-147.17;100.00;49322.47;5055040;28;51327;-58
2021/10/31 03:04:41;;;;;;;;;14.33;13.33;;;;;-147.17;100.00;49285.06;5054840;28;52106;-59
2021/10/31 03:07:08;;;;;;;;;14.00;13.00;;;;;-147.17;100.00;49344.13;5055019;28;51560;-59
2021/10/31 03:09:35;;;;;;;;;14.67;13.67;;;;;-147.17;100.00;49285.06;5055264;28;51393;-59
2021/10/31 03:12:07;;;;;;;;;11.00;11.00;;;;;-147.17;100.00;49318.53;5055419;28;51295;-58
2021/10/31 03:14:33;;;;;;;;;12.67;12.33;;;;;-147.17;100.00;49332.31;5055550;28;51343;-57
2021/10/31 03:16:59;;;;;;;;;13.00;12.00;;;;;-147.17;100.00;49328.38;5037240;28;53035;-55
2021/10/31 03:19:24;;;;;;;;;12.67;12.00;;;;;-147.17;100.00;49340.19;5054486;28;51338;-57
2021/10/31 03:21:49;;;;;;;;;13.00;13.00;;;;;-147.17;100.00;49314.59;5056006;28;51777;-56
2021/10/31 03:24:15;;;;;;;;;11.00;11.00;;;;;-147.17;100.00;49320.50;5056046;28;51227;-57
2021/10/31 03:26:40;;;;;;;;;12.00;10.33;;;;;-147.17;100.00;49352.00;5056206;28;51806;-59
2021/10/31 03:29:06;;;;;;;;;11.00;10.00;;;;;-147.17;100.00;49373.63;5053557;28;51253;-58
2021/10/31 03:31:31;;;;;;;;;13.00;13.00;;;;;-147.17;100.00;49344.13;5055135;28;51263;-57
2021/10/31 03:33:57;;;;;;;;;9.67;9.67;;;;;-147.17;100.00;49308.69;5053910;28;51154;-59
2021/10/31 03:36:22;;;;;;;;;9.33;8.67;;;;;-147.17;100.00;49308.69;5036102;28;51425;-57
2021/10/31 03:38:48;;;;;;;;;11.33;10.67;;;;;-147.17;100.00;49353.97;5055163;28;51160;-58
2021/10/31 03:41:13;;;;;;;;;13.00;12.00;;;;;-147.17;100.00;49312.63;5054367;28;52591;-58
2021/10/31 03:43:38;;;;;;;;;10.67;9.67;;;;;-147.17;100.00;49346.09;5056671;28;51297;-58
2021/10/31 03:46:04;;;;;;;;;11.33;11.00;;;;;-147.17;100.00;49357.91;5054289;28;52196;-58
2021/10/31 03:48:29;;;;;;;;;12.00;12.00;;;;;-147.17;100.00;49363.78;5053406;28;51194;-58
2021/10/31 03:50:54;;;;;;;;;11.00;11.00;;;;;-147.17;100.00;49326.41;5055059;28;51319;-58
2021/10/31 03:53:20;;;;;;;;;13.25;12.25;;;;;-147.17;100.00;49363.78;5055060;28;51140;-59
2021/10/31 03:55:46;;;;;;;;;12.00;11.67;;;;;-147.17;100.00;49346.09;5037338;28;52419;-59
2021/10/31 03:58:11;;;;;;;;;13.00;12.00;;;;;-147.17;100.00;49320.50;5054158;28;51418;-58
2021/10/31 04:00:37;;;;;;;;;11.50;11.25;;;;;-147.17;100.00;49322.47;5054450;28;51398;-57
2021/10/31 04:03:02;;;;;;;;;14.00;13.00;;;;;-147.17;100.00;49322.47;5017663;28;51496;-58
2021/10/31 04:05:27;;;;;;;;;12.50;12.25;;;;;-147.17;100.00;49324.44;5052963;28;51294;-56
2021/10/31 04:07:54;;;;;;;;;15.75;14.50;;;;;-147.17;100.00;49367.72;5054082;28;51354;-57
2021/10/31 04:10:19;;;;;;;;;11.00;10.25;;;;;-147.17;100.00;49346.09;5054785;28;51339;-59
2021/10/31 04:12:46;;;;;;;;;13.75;13.00;;;;;-147.17;100.00;49306.72;5054578;28;51456;-58
2021/10/31 04:15:12;;;;;;;;;11.00;11.00;;;;;-147.17;100.00;49340.19;5054029;28;52687;-59
2021/10/31 04:17:37;;;;;;;;;14.00;13.67;;;;;-147.17;100.00;49324.44;5054237;28;51334;-58
2021/10/31 04:20:04;;;;;;;;;18.00;16.75;;;;;-147.17;100.00;49361.81;5053910;28;51671;-58
2021/10/31 04:22:29;;;;;;;;;15.67;13.33;;;;;-147.17;100.00;49369.69;5054952;28;52026;-58
2021/10/31 04:24:55;;;;;;;;;14.00;14.00;;;;;-147.17;100.00;49353.97;5054079;28;51892;-59
2021/10/31 04:27:20;;;;;;;;;13.33;12.00;;;;;-147.17;100.00;49324.44;5032692;28;51289;-59
2021/10/31 04:29:45;;;;;;;;;13.67;12.67;;;;;-147.17;100.00;49346.09;5054047;28;51460;-58
2021/10/31 04:32:11;;;;;;;;;13.00;12.67;;;;;-147.17;100.00;49304.75;5052967;28;51648;-58
2021/10/31 04:34:36;;;;;;;;;12.33;11.67;;;;;-147.17;100.00;49328.38;5053953;28;52222;-57
2021/10/31 04:37:02;;;;;;;;;11.00;10.33;;;;;-147.17;100.00;49320.50;5053835;28;51370;-57
2021/10/31 04:39:28;;;;;;;;;11.67;10.00;;;;;-147.17;100.00;49310.66;5019897;28;51489;-57
2021/10/31 04:42:01;;;;;;;;;10.67;10.67;;;;;-147.17;100.00;49324.44;5053447;28;51121;-58
2021/10/31 04:44:26;;;;;;;;;10.67;10.67;;;;;-147.17;100.00;49322.47;5053475;28;53272;-58
2021/10/31 04:46:52;;;;;;;;;11.00;11.00;;;;;-147.17;100.00;49328.38;5033972;28;51217;-58
2021/10/31 04:49:17;;;;;;;;;10.00;10.00;;;;;-147.17;100.00;49322.47;5055174;28;51326;-58
2021/10/31 04:51:42;;;;;;;;;12.33;11.67;;;;;-147.17;100.00;49306.72;5054601;28;51423;-58
2021/10/31 04:54:09;;;;;;;;;9.67;8.67;;;;;-147.17;100.00;49332.31;5035778;28;51338;-57
2021/10/31 04:56:35;;;;;;;;;10.33;9.00;;;;;-147.17;100.00;49344.13;5053662;28;51267;-57
2021/10/31 04:59:00;;;;;;;;;12.00;12.00;;;;;-147.17;100.00;49312.63;5053498;28;51457;-58
2021/10/31 05:01:25;;;;;;;;;13.33;13.33;;;;;-147.17;100.00;49332.31;5055248;28;51439;-57
2021/10/31 05:03:51;;;;;;;;;12.33;11.00;;;;;-147.17;100.00;49316.56;5054292;28;51794;-58
2021/10/31 05:06:16;;;;;;;;;13.33;12.67;;;;;-147.17;100.00;49316.56;5055085;28;51523;-58
2021/10/31 05:08:42;;;;;;;;;13.00;12.67;;;;;-147.17;100.00;49316.56;5052406;28;53164;-58
2021/10/31 05:11:09;;;;;;;;;12.67;12.00;;;;;-147.17;100.00;49332.31;5055116;28;51355;-58
2021/10/31 05:13:34;;;;;;;;;12.67;12.00;;;;;-147.17;100.00;49314.59;5052903;28;52028;-58
2021/10/31 05:16:00;;;;;;;;;10.67;10.67;;;;;-147.17;100.00;49312.63;5054296;28;53494;-57
2021/10/31 05:18:26;;;;;;;;;12.33;11.33;;;;;-147.17;100.00;49328.38;5053814;28;51248;-57
2021/10/31 05:20:51;;;;;;;;;12.00;11.00;;;;;-147.17;100.00;49292.94;5054613;28;51262;-58
2021/10/31 05:23:16;;;;;;;;;11.67;11.67;;;;;-147.17;100.00;49275.22;5052826;28;52764;-58
2021/10/31 05:25:42;;;;;;;;;10.00;10.00;;;;;-147.17;100.00;49300.81;5041191;28;51526;-57
2021/10/31 05:28:07;;;;;;;;;8.33;8.33;;;;;-147.17;100.00;49289.00;5052373;28;51170;-57
2021/10/31 05:30:32;;;;;;;;;10.00;10.00;;;;;-147.17;100.00;49324.44;5054701;28;51184;-58
2021/10/31 05:32:58;;;;;;;;;9.67;8.00;;;;;-147.17;100.00;49290.97;5035019;28;51790;-59
2021/10/31 05:35:24;;;;;;;;;10.67;10.67;;;;;-147.17;100.00;49316.56;5052073;28;51357;-57
2021/10/31 05:37:56;;;;;;;;;11.00;10.67;;;;;-147.17;100.00;49316.56;5053163;28;52280;-56
2021/10/31 05:40:22;;;;;;;;;11.00;9.67;;;;;-147.17;100.00;49292.94;5055232;28;51612;-57
2021/10/31 05:42:48;;;;;;;;;8.67;8.67;;;;;-147.17;100.00;49306.72;5054777;28;51703;-57
2021/10/31 05:45:13;;;;;;;;;9.00;8.33;;;;;-147.17;100.00;49306.72;5052878;28;51345;-58
2021/10/31 05:47:40;;;;;;;;;7.67;7.67;;;;;-147.17;100.00;49338.22;5053431;28;51161;-57
2021/10/31 05:50:09;;;;;;;;;8.67;8.00;;;;;-147.17;100.00;49330.34;5034069;28;51468;-57
2021/10/31 05:52:35;;;;;;;;;6.67;6.67;;;;;-147.17;100.00;49269.34;5052165;28;51855;-57
2021/10/31 05:55:01;;;;;;;;;8.67;8.00;;;;;-147.17;100.00;49318.53;5053457;28;51999;-57
2021/10/31 05:57:27;;;;;;;;;7.00;7.00;;;;;-147.17;100.00;49300.81;5038071;28;51173;-57
2021/10/31 05:59:53;;;;;;;;;6.00;6.00;;;;;-147.17;100.00;49338.22;5058239;28;52936;-58
2021/10/31 06:02:19;;;;;;;;;9.00;8.00;;;;;-147.17;100.00;49314.59;5054788;28;52293;-58
2021/10/31 06:04:46;;;;;;;;;6.67;6.67;;;;;-147.17;100.00;49298.84;5056400;28;51231;-57
2021/10/31 06:07:12;;;;;;;;;8.00;7.67;;;;;-147.17;100.00;49322.47;5057161;28;53422;-57
2021/10/31 06:09:38;;;;;;;;;6.33;6.00;;;;;-147.17;100.00;49300.81;5055168;28;51177;-57
2021/10/31 06:12:05;;;;;;;;;7.67;7.67;;;;;-147.17;100.00;49292.94;5056123;28;51738;-56
2021/10/31 06:14:32;;;;;;;;;9.33;7.67;;;;;-147.17;100.00;49312.63;5039000;28;51485;-57
2021/10/31 06:16:57;;;;;;;;;5.00;5.00;;;;;-147.17;100.00;49304.75;5055902;28;51210;-58
2021/10/31 06:19:22;;;;;;;;;5.00;5.00;;;;;-147.17;100.00;49294.91;5056585;28;51491;-57
2021/10/31 06:21:48;;;;;;;;;9.00;8.00;;;;;-147.17;100.00;49279.16;5056658;28;52064;-57
2021/10/31 06:24:14;;;;;;;;;7.00;7.00;;;;;-147.17;100.00;49289.00;5036825;28;51384;-58
2021/10/31 06:26:39;;;;;;;;;6.00;6.00;;;;;-147.17;100.00;49328.38;5056357;28;51362;-55
2021/10/31 06:29:05;;;;;;;;;6.33;6.33;;;;;-147.17;100.00;49283.09;5056033;28;51354;-57
2021/10/31 06:31:30;;;;;;;;;6.33;6.33;;;;;-147.17;100.00;49279.16;5056524;28;51689;-57
2021/10/31 06:33:56;;;;;;;;;7.67;7.00;;;;;-147.17;100.00;49289.00;5056875;28;51164;-57
2021/10/31 06:36:21;;;;;;;;;6.00;6.00;;;;;-147.17;100.00;49257.53;5056583;28;51373;-57
2021/10/31 06:38:46;;;;;;;;;6.67;6.67;;;;;-147.17;100.00;49261.47;5056058;28;51427;-57
2021/10/31 06:41:12;;;;;;;;;8.00;8.00;;;;;-147.17;100.00;49292.94;5056526;28;51692;-57
2021/10/31 06:43:37;;;;;;;;;8.00;7.00;;;;;-147.17;100.00;49290.97;5057375;28;51351;-57
2021/10/31 06:46:03;;;;;;;;;6.00;6.00;;;;;-147.17;100.00;49273.25;5057340;28;53145;-57
2021/10/31 06:48:28;;;;;;;;;9.33;8.00;;;;;-147.17;100.00;49257.53;5056985;28;51160;-57
2021/10/31 06:50:55;;;;;;;;;8.00;7.33;;;;;-147.17;100.00;49275.22;5053177;28;51236;-57
2021/10/31 06:53:22;;;;;;;;;5.67;5.00;;;;;-147.17;100.00;49263.44;5055397;28;51160;-57
2021/10/31 06:55:47;;;;;;;;;8.67;8.00;;;;;-147.17;100.00;49289.00;5054780;28;51405;-57
2021/10/31 06:58:13;;;;;;;;;10.33;7.67;;;;;-147.17;100.00;49281.13;5047442;28;51329;-57
2021/10/31 07:00:38;;;;;;;;;6.00;6.00;;;;;-147.17;100.00;49296.88;5050082;28;52518;-58
2021/10/31 07:03:04;;;;;;;;;5.00;5.00;;;;;-147.17;100.00;49289.00;5036880;28;51160;-57
2021/10/31 07:05:29;;;;;;;;;7.67;7.67;;;;;-147.17;100.00;49279.16;5053846;28;51499;-57
2021/10/31 07:07:54;;;;;;;;;8.00;8.00;;;;;-147.17;100.00;49273.25;5052763;28;51345;-57
2021/10/31 07:10:20;;;;;;;;;7.67;7.67;;;;;-147.17;100.00;49304.75;5053399;28;51521;-58
2021/10/31 07:12:45;;;;;;;;;7.00;7.00;;;;;-147.17;100.00;49273.25;5054235;28;51338;-58
2021/10/31 07:15:12;;;;;;;;;7.00;7.00;;;;;-147.17;100.00;49283.09;5034107;28;51714;-57
2021/10/31 07:17:42;;;;;;;;;6.33;6.00;;;;;-147.17;100.00;49306.72;5052532;28;51314;-58
2021/10/31 07:20:07;;;;;;;;;8.67;8.00;;;;;-147.17;100.00;49269.34;5053617;28;51857;-58
2021/10/31 07:22:34;;;;;;;;;8.00;7.67;;;;;-147.17;100.00;49287.03;5053022;28;51247;-58
2021/10/31 07:25:00;;;;;;;;;6.33;6.00;;;;;-147.17;100.00;49281.13;5053278;28;51290;-56
2021/10/31 07:27:25;;;;;;;;;6.00;6.00;;;;;-147.17;100.00;49292.94;5047689;28;51584;-58
2021/10/31 07:29:51;;;;;;;;;8.00;7.00;;;;;-147.17;100.00;49263.44;5053479;28;52752;-58
2021/10/31 07:32:17;;;;;;;;;7.00;6.00;;;;;-147.17;100.00;49235.88;5053239;28;51426;-56
2021/10/31 07:34:44;;;;;;;;;7.00;7.00;;;;;-147.17;100.00;49259.50;5053364;28;51226;-56
2021/10/31 07:37:09;;;;;;;;;8.67;7.67;;;;;-147.17;100.00;49261.47;5053099;28;53578;-57
2021/10/31 07:39:35;;;;;;;;;8.00;8.00;;;;;-147.17;100.00;49245.72;5054773;28;51921;-57
2021/10/31 07:42:01;;;;;;;;;8.00;7.67;;;;;-147.17;100.00;49292.94;5055358;28;51239;-56
2021/10/31 07:44:27;;;;;;;;;7.33;7.33;;;;;-147.17;100.00;49253.59;5050981;28;51224;-58
2021/10/31 07:46:52;;;;;;;;;10.67;9.33;;;;;-147.17;100.00;49233.91;5054833;28;51121;-57
2021/10/31 07:49:18;;;;;;;;;7.00;7.00;;;;;-147.17;100.00;49214.22;5054070;28;52161;-58
2021/10/31 07:51:44;;;;;;;;;6.33;6.00;;;;;-147.17;100.00;49241.78;5054890;28;51138;-57
2021/10/31 07:54:10;;;;;;;;;8.67;8.67;;;;;-147.17;100.00;49267.38;5052918;28;51354;-57
2021/10/31 07:56:36;;;;;;;;;6.33;6.00;;;;;-147.17;100.00;49231.94;5053969;28;52012;-57
2021/10/31 07:59:02;;;;;;;;;7.00;7.00;;;;;-147.17;100.00;49249.66;5054153;28;51963;-57
2021/10/31 08:01:28;;;;;;;;;8.33;8.00;;;;;-147.17;100.00;49261.47;5055716;28;51432;-60
2021/10/31 08:03:54;;;;;;;;;6.67;6.00;;;;;-147.17;100.00;49247.69;5053125;28;51279;-58
2021/10/31 08:06:23;;;;;;;;;5.00;5.00;;;;;-147.17;100.00;49237.84;5052415;28;53288;-57
2021/10/31 08:08:49;;;;;;;;;7.67;7.00;;;;;-147.17;100.00;49285.06;5053929;28;52382;-57
2021/10/31 08:11:15;;;;;;;;;6.67;6.67;;;;;-147.17;100.00;49237.84;5054224;28;53342;-57
2021/10/31 08:13:40;;;;;;;;;6.33;6.33;;;;;-147.17;100.00;49269.34;5050189;28;51755;-57
2021/10/31 08:16:06;;;;;;;;;7.67;6.67;;;;;-147.17;100.00;49253.59;5052554;28;51488;-59
2021/10/31 08:18:32;;;;;;;;;7.33;7.00;;;;;-147.17;100.00;49257.53;5054717;28;51989;-58
2021/10/31 08:20:57;;;;;;;;;9.67;6.33;;;;;-147.17;100.00;49265.41;5054781;28;51119;-59
2021/10/31 08:23:23;;;;;;;;;7.67;7.33;;;;;-147.17;100.00;49249.66;5055276;28;51480;-58
2021/10/31 08:25:50;;;;;;;;;9.00;8.00;;;;;-147.17;100.00;49253.59;5054491;28;51209;-58
2021/10/31 08:28:17;;;;;;;;;8.00;8.00;;;;;-147.17;100.00;49231.94;5055152;28;53040;-58
2021/10/31 08:30:56;;;;;;;;;10.00;9.00;;;;;-147.17;100.00;49249.66;5049961;28;53229;-57
2021/10/31 08:33:24;;;;;;;;;8.00;7.67;;;;;-147.17;100.00;49233.91;5055065;28;51446;-58
2021/10/31 08:35:50;;;;;;;;;8.00;8.00;;;;;-147.17;100.00;49229.97;5054340;28;51186;-58
2021/10/31 08:38:17;;;;;;;;;7.00;7.00;;;;;-147.17;100.00;49241.78;5054040;28;51398;-58
2021/10/31 08:40:43;;;;;;;;;8.67;7.67;;;;;-147.17;100.00;49229.97;5052579;28;51446;-59
2021/10/31 08:43:10;;;;;;;;;9.67;9.00;;;;;-147.17;100.00;49261.47;5052908;28;51335;-58
2021/10/31 08:45:38;;;;;;;;;7.00;7.00;;;;;-147.17;100.00;49253.59;5054537;28;51462;-58
2021/10/31 08:48:04;;;;;;;;;8.33;8.33;;;;;-147.17;100.00;49214.22;5053944;28;51929;-58
2021/10/31 08:50:29;;;;;;;;;9.00;8.67;;;;;-147.17;100.00;49226.03;5052765;28;51618;-58
2021/10/31 08:52:54;;;;;;;;;5.00;5.00;;;;;-147.17;100.00;49214.22;5054458;28;53821;-58
2021/10/31 08:55:20;;;;;;;;;6.67;6.67;;;;;-147.17;100.00;49253.59;5052894;28;51297;-58
2021/10/31 08:57:46;;;;;;;;;8.33;8.00;;;;;-147.17;100.00;49218.16;5054600;28;52232;-58
2021/10/31 09:00:12;;;;;;;;;6.00;6.00;;;;;-147.17;100.00;49204.38;5052339;28;51179;-58
2021/10/31 09:02:38;;;;;;;;;8.67;8.00;;;;;-147.17;100.00;49220.13;5053360;28;51295;-59
2021/10/31 09:05:07;;;;;;;;;6.67;6.00;;;;;-147.17;100.00;49224.06;5052070;28;51360;-57
2021/10/31 09:07:34;;;;;;;;;8.00;6.67;;;;;-147.17;100.00;49210.28;5053213;28;51423;-58
2021/10/31 09:10:00;;;;;;;;;6.00;6.00;;;;;-147.17;100.00;49210.28;5033410;28;51203;-57
2021/10/31 09:12:26;;;;;;;;;9.67;8.67;;;;;-147.17;100.00;49176.84;5050741;28;51251;-59
2021/10/31 09:14:52;;;;;;;;;6.00;5.67;;;;;-147.17;100.00;49206.34;5052048;28;51167;-59
2021/10/31 09:17:17;;;;;;;;;6.33;6.33;;;;;-147.17;100.00;49228.00;5048668;28;52609;-59
2021/10/31 09:19:43;;;;;;;;;6.67;6.67;;;;;-147.17;100.00;49153.22;5049639;28;53969;-58
2021/10/31 09:22:10;;;;;;;;;7.33;7.33;;;;;-147.17;100.00;49190.63;5051390;28;52696;-58
2021/10/31 09:24:35;;;;;;;;;6.33;6.00;;;;;-147.17;100.00;49133.53;5047802;28;51195;-58
2021/10/31 09:27:01;;;;;;;;;7.00;7.00;;;;;-147.17;100.00;49135.50;5048973;28;51984;-58
2021/10/31 09:29:29;;;;;;;;;6.00;6.00;;;;;-147.17;100.00;49119.75;5029140;28;53488;-58
2021/10/31 09:31:54;;;;;;;;;7.00;6.33;;;;;-147.17;100.00;49168.97;5045799;28;51200;-58
2021/10/31 09:34:20;;;;;;;;;8.67;7.00;;;;;-147.17;100.00;49092.22;5054405;27;51352;-58
2021/10/31 09:36:46;;;;;;;;;6.67;6.67;;;;;-147.17;100.00;49127.63;5050024;28;52103;-59
2021/10/31 09:39:12;;;;;;;;;9.33;9.00;;;;;-147.17;100.00;49127.63;5053673;27;51244;-58
2021/10/31 09:41:39;;;;;;;;;7.00;6.33;;;;;-147.17;100.00;49060.72;5032181;28;52713;-59
2021/10/31 09:46:38;;;;;;;;;9.67;7.33;;;;;-147.17;100.00;49056.78;5051638;28;51956;-58
2021/10/31 09:49:05;;;;;;;;;6.33;5.00;;;;;-147.17;100.00;49088.28;5051236;28;51315;-58
2021/10/31 09:51:31;;;;;;;;;6.00;5.00;;;;;-147.17;100.00;49037.13;5050079;28;51248;-61
2021/10/31 09:53:59;;;;;;;;;7.67;7.00;;;;;-147.17;100.00;49050.88;5052169;28;51246;-58
2021/10/31 09:56:25;;;;;;;;;11.33;8.33;;;;;-147.17;100.00;49027.28;5050868;28;51513;-59
2021/10/31 09:58:52;;;;;;;;;8.67;8.67;;;;;-147.17;100.00;49041.03;5050930;28;51739;-59
2021/10/31 10:01:48;;;;;;;;;5.00;4.00;;;;;-147.17;100.00;49007.59;5049167;28;51422;-59
2021/10/31 10:04:23;;;;;;;;;5.00;5.00;;;;;-147.17;100.00;49015.47;5051780;27;51270;-58
2021/10/31 10:06:51;;;;;;;;;5.33;5.33;;;;;-147.17;100.00;49021.38;5053859;28;51186;-59
2021/10/31 10:09:16;;;;;;;;;4.00;4.00;;;;;-147.17;100.00;49033.19;5035815;28;51314;-58
2021/10/31 10:11:44;;;;;;;;;5.00;5.00;;;;;-147.17;100.00;49041.03;5055194;28;52619;-59
2021/10/31 10:14:17;;;;;;;;;3.67;3.00;;;;;-147.17;100.00;49050.88;5049653;28;51325;-59
2021/10/31 10:16:44;;;;;;;;;4.00;4.00;;;;;-147.17;100.00;48966.28;5050543;28;52106;-58
2021/10/31 10:19:39;;;;;;;;;3.67;3.67;;;;;-147.17;100.00;48956.44;5046920;28;51390;-57
2021/10/31 10:22:08;;;;;;;;;2.67;2.67;;;;;-147.17;100.00;48985.94;5042294;28;51410;-58
2021/10/31 10:24:36;;;;;;;;;4.00;4.00;;;;;-147.17;100.00;48930.84;5016536;28;51306;-59
2021/10/31 10:27:05;;;;;;;;;4.00;4.00;;;;;-147.17;100.00;48871.81;5054450;28;52210;-59
2021/10/31 10:29:35;;;;;;;;;4.33;3.33;;;;;-147.17;100.00;48861.97;5036813;28;51299;-58
2021/10/31 10:32:06;;;;;;;;;4.00;4.00;;;;;-147.17;100.00;48863.94;5055659;28;53647;-59
2021/10/31 10:34:50;;;;;;;;;5.00;4.00;;;;;-147.17;100.00;48820.66;5036387;28;51522;-59
2021/10/31 10:37:29;;;;;;;;;6.00;5.67;;;;;-147.17;100.00;48773.41;5052710;28;52304;-58
2021/10/31 10:39:56;;;;;;;;;2.67;2.33;;;;;-147.17;100.00;48757.69;5056571;28;51264;-57
2021/10/31 10:42:27;;;;;;;;;3.67;3.67;;;;;-147.17;100.00;48716.34;5051473;27;51380;-59
2021/10/31 10:44:58;;;;;;;;;3.00;3.00;;;;;-147.17;100.00;48738.00;5055281;28;51618;-58
2021/10/31 10:47:24;;;;;;;;;3.00;3.00;;;;;-147.17;100.00;48706.53;5032903;28;51885;-60
2021/10/31 10:49:53;;;;;;;;;4.00;4.00;;;;;-147.17;100.00;48704.56;5054293;28;51481;-61
2021/10/31 10:52:37;;;;;;;;;10.67;7.67;;;;;-147.17;100.00;48698.66;5053648;28;51425;-67
2021/10/31 10:55:14;;;;;;;;;6.00;5.00;;;;;-147.17;100.00;48659.28;5054667;28;51516;-66
2021/10/31 10:57:43;;;;;;;;;3.00;2.67;;;;;-147.17;100.00;48629.78;5053180;28;54274;-78
2021/10/31 11:00:19;;;;;;;;;3.00;3.00;;;;;-147.17;100.00;48635.69;5052321;28;51427;-73
2021/10/31 11:03:06;;;;;;;;;3.00;3.00;;;;;-147.17;100.00;48688.81;5053202;28;52740;-78
2021/10/31 11:05:40;;;;;;;;;3.00;3.00;;;;;-147.17;100.00;48663.22;5042426;28;51391;-73
2021/10/31 11:08:19;;;;;;;;;4.00;4.00;;;;;-147.17;100.00;48686.84;5035745;28;53296;-72
2021/10/31 11:10:55;;;;;;;;;2.33;1.67;;;;;-147.17;100.00;48602.22;5054753;28;51196;-72